sensor_id;sensor_type;location;lat;lon;timestamp;P1;durP1;ratioP1;P2;durP2;ratioP2
56667;SDS011;42542;48.360;10.958;2023-04-15T00:02:24;11.87;;;5.07;;
56667;SDS011;42542;48.360;10.958;2023-04-15T00:05:29;10.95;;;4.57;;
56667;SDS011;42542;48.360;10.958;2023-04-15T00:08:33;8.60;;;3.72;;
56667;SDS011;42542;48.360;10.958;2023-04-15T00:11:49;9.83;;;3.90;;
56667;SDS011;42542;48.360;10.958;2023-04-15T00:14:55;10.40;;;4.15;;
56667;SDS011;42542;48.360;10.958;2023-04-15T00:18:08;9.73;;;4.00;;
56667;SDS011;42542;48.360;10.958;2023-04-15T00:21:13;10.35;;;4.15;;
56667;SDS011;42542;48.360;10.958;2023-04-15T00:24:17;10.43;;;3.88;;
56667;SDS011;42542;48.360;10.958;2023-04-15T00:27:21;10.35;;;4.10;;
56667;SDS011;42542;48.360;10.958;2023-04-15T00:30:26;11.40;;;4.55;;
56667;SDS011;42542;48.360;10.958;2023-04-15T00:33:31;11.07;;;4.13;;
56667;SDS011;42542;48.360;10.958;2023-04-15T00:36:36;10.38;;;4.22;;
56667;SDS011;42542;48.360;10.958;2023-04-15T00:39:47;9.27;;;3.83;;
56667;SDS011;42542;48.360;10.958;2023-04-15T00:42:54;9.40;;;3.73;;
56667;SDS011;42542;48.360;10.958;2023-04-15T00:46:07;12.23;;;4.07;;
56667;SDS011;42542;48.360;10.958;2023-04-15T00:49:14;9.57;;;3.97;;
56667;SDS011;42542;48.360;10.958;2023-04-15T00:52:27;10.52;;;3.90;;
56667;SDS011;42542;48.360;10.958;2023-04-15T00:55:29;9.70;;;4.10;;
56667;SDS011;42542;48.360;10.958;2023-04-15T00:58:36;12.18;;;3.90;;
56667;SDS011;42542;48.360;10.958;2023-04-15T01:01:47;10.55;;;4.15;;
56667;SDS011;42542;48.360;10.958;2023-04-15T01:04:53;9.20;;;3.87;;
56667;SDS011;42542;48.360;10.958;2023-04-15T01:08:03;10.23;;;4.10;;
56667;SDS011;42542;48.360;10.958;2023-04-15T01:11:20;10.65;;;4.20;;
56667;SDS011;42542;48.360;10.958;2023-04-15T01:14:24;9.77;;;4.40;;
56667;SDS011;42542;48.360;10.958;2023-04-15T01:17:28;11.18;;;4.10;;
56667;SDS011;42542;48.360;10.958;2023-04-15T01:20:33;12.52;;;4.15;;
56667;SDS011;42542;48.360;10.958;2023-04-15T01:23:40;10.27;;;3.70;;
56667;SDS011;42542;48.360;10.958;2023-04-15T01:26:56;8.77;;;3.50;;
56667;SDS011;42542;48.360;10.958;2023-04-15T01:30:01;9.00;;;3.70;;
56667;SDS011;42542;48.360;10.958;2023-04-15T01:33:07;9.07;;;3.72;;
56667;SDS011;42542;48.360;10.958;2023-04-15T01:36:10;8.23;;;3.63;;
56667;SDS011;42542;48.360;10.958;2023-04-15T01:39:13;10.70;;;3.58;;
56667;SDS011;42542;48.360;10.958;2023-04-15T01:42:20;8.50;;;3.60;;
56667;SDS011;42542;48.360;10.958;2023-04-15T01:45:23;11.57;;;3.80;;
56667;SDS011;42542;48.360;10.958;2023-04-15T01:48:26;9.80;;;3.53;;
56667;SDS011;42542;48.360;10.958;2023-04-15T01:51:31;9.77;;;3.50;;
56667;SDS011;42542;48.360;10.958;2023-04-15T01:54:33;9.65;;;3.40;;
56667;SDS011;42542;48.360;10.958;2023-04-15T01:57:36;11.73;;;3.55;;
56667;SDS011;42542;48.360;10.958;2023-04-15T02:00:52;9.27;;;3.65;;
56667;SDS011;42542;48.360;10.958;2023-04-15T02:04:06;8.27;;;3.35;;
56667;SDS011;42542;48.360;10.958;2023-04-15T02:07:16;10.03;;;3.73;;
56667;SDS011;42542;48.360;10.958;2023-04-15T02:10:21;8.68;;;3.78;;
56667;SDS011;42542;48.360;10.958;2023-04-15T02:13:26;8.77;;;3.60;;
56667;SDS011;42542;48.360;10.958;2023-04-15T02:16:37;10.47;;;3.57;;
56667;SDS011;42542;48.360;10.958;2023-04-15T02:19:42;8.35;;;3.40;;
56667;SDS011;42542;48.360;10.958;2023-04-15T02:22:48;7.78;;;3.30;;
56667;SDS011;42542;48.360;10.958;2023-04-15T02:25:53;9.27;;;3.50;;
56667;SDS011;42542;48.360;10.958;2023-04-15T02:28:59;9.77;;;3.85;;
56667;SDS011;42542;48.360;10.958;2023-04-15T02:32:03;9.20;;;3.40;;
56667;SDS011;42542;48.360;10.958;2023-04-15T02:35:09;8.48;;;3.40;;
56667;SDS011;42542;48.360;10.958;2023-04-15T02:38:20;8.30;;;3.10;;
56667;SDS011;42542;48.360;10.958;2023-04-15T02:41:25;8.95;;;3.38;;
56667;SDS011;42542;48.360;10.958;2023-04-15T02:44:32;9.30;;;3.33;;
56667;SDS011;42542;48.360;10.958;2023-04-15T02:47:45;9.40;;;3.50;;
56667;SDS011;42542;48.360;10.958;2023-04-15T02:50:50;11.43;;;3.60;;
56667;SDS011;42542;48.360;10.958;2023-04-15T02:53:56;11.20;;;3.53;;
56667;SDS011;42542;48.360;10.958;2023-04-15T02:57:01;8.35;;;3.22;;
56667;SDS011;42542;48.360;10.958;2023-04-15T03:00:09;11.38;;;3.65;;
56667;SDS011;42542;48.360;10.958;2023-04-15T03:03:15;10.63;;;3.35;;
56667;SDS011;42542;48.360;10.958;2023-04-15T03:06:18;7.78;;;3.10;;
56667;SDS011;42542;48.360;10.958;2023-04-15T03:09:30;10.07;;;3.70;;
56667;SDS011;42542;48.360;10.958;2023-04-15T03:12:36;9.32;;;3.60;;
56667;SDS011;42542;48.360;10.958;2023-04-15T03:15:53;12.80;;;3.42;;
56667;SDS011;42542;48.360;10.958;2023-04-15T03:18:58;10.80;;;3.50;;
56667;SDS011;42542;48.360;10.958;2023-04-15T03:22:14;9.73;;;3.70;;
56667;SDS011;42542;48.360;10.958;2023-04-15T03:25:18;12.23;;;3.90;;
56667;SDS011;42542;48.360;10.958;2023-04-15T03:28:24;10.13;;;3.40;;
56667;SDS011;42542;48.360;10.958;2023-04-15T03:31:33;10.40;;;3.55;;
56667;SDS011;42542;48.360;10.958;2023-04-15T03:34:39;8.90;;;3.40;;
56667;SDS011;42542;48.360;10.958;2023-04-15T03:37:45;9.38;;;3.50;;
56667;SDS011;42542;48.360;10.958;2023-04-15T03:41:00;9.23;;;3.43;;
56667;SDS011;42542;48.360;10.958;2023-04-15T03:44:05;12.90;;;3.80;;
56667;SDS011;42542;48.360;10.958;2023-04-15T03:47:19;10.45;;;3.47;;
56667;SDS011;42542;48.360;10.958;2023-04-15T03:50:24;8.73;;;3.20;;
56667;SDS011;42542;48.360;10.958;2023-04-15T03:53:28;10.23;;;3.60;;
56667;SDS011;42542;48.360;10.958;2023-04-15T03:56:31;12.35;;;3.65;;
56667;SDS011;42542;48.360;10.958;2023-04-15T03:59:35;12.45;;;3.60;;
56667;SDS011;42542;48.360;10.958;2023-04-15T04:02:41;8.82;;;3.30;;
56667;SDS011;42542;48.360;10.958;2023-04-15T04:05:50;9.52;;;3.63;;
56667;SDS011;42542;48.360;10.958;2023-04-15T04:08:55;8.75;;;3.60;;
56667;SDS011;42542;48.360;10.958;2023-04-15T04:12:01;12.23;;;3.63;;
56667;SDS011;42542;48.360;10.958;2023-04-15T04:15:08;8.80;;;3.40;;
56667;SDS011;42542;48.360;10.958;2023-04-15T04:18:31;9.82;;;3.67;;
56667;SDS011;42542;48.360;10.958;2023-04-15T04:21:36;10.53;;;3.57;;
56667;SDS011;42542;48.360;10.958;2023-04-15T04:24:50;11.32;;;3.85;;
56667;SDS011;42542;48.360;10.958;2023-04-15T04:27:55;10.95;;;3.75;;
56667;SDS011;42542;48.360;10.958;2023-04-15T04:31:13;9.02;;;3.20;;
56667;SDS011;42542;48.360;10.958;2023-04-15T04:34:22;9.27;;;3.38;;
56667;SDS011;42542;48.360;10.958;2023-04-15T04:37:35;11.35;;;3.75;;
56667;SDS011;42542;48.360;10.958;2023-04-15T04:40:40;10.65;;;3.72;;
56667;SDS011;42542;48.360;10.958;2023-04-15T04:43:48;10.53;;;3.70;;
56667;SDS011;42542;48.360;10.958;2023-04-15T04:46:55;12.10;;;3.90;;
56667;SDS011;42542;48.360;10.958;2023-04-15T04:50:01;9.00;;;3.35;;
56667;SDS011;42542;48.360;10.958;2023-04-15T04:53:06;9.10;;;3.40;;
56667;SDS011;42542;48.360;10.958;2023-04-15T04:56:13;9.18;;;3.75;;
56667;SDS011;42542;48.360;10.958;2023-04-15T04:59:19;10.60;;;4.03;;
56667;SDS011;42542;48.360;10.958;2023-04-15T05:02:31;13.00;;;3.97;;
56667;SDS011;42542;48.360;10.958;2023-04-15T05:05:34;13.85;;;3.72;;
56667;SDS011;42542;48.360;10.958;2023-04-15T05:08:46;10.70;;;4.03;;
56667;SDS011;42542;48.360;10.958;2023-04-15T05:11:51;12.50;;;3.90;;
56667;SDS011;42542;48.360;10.958;2023-04-15T05:14:54;12.03;;;3.20;;
56667;SDS011;42542;48.360;10.958;2023-04-15T05:17:57;11.70;;;3.30;;
56667;SDS011;42542;48.360;10.958;2023-04-15T05:21:02;8.98;;;2.92;;
56667;SDS011;42542;48.360;10.958;2023-04-15T05:24:13;7.63;;;2.80;;
56667;SDS011;42542;48.360;10.958;2023-04-15T05:27:19;8.35;;;2.53;;
56667;SDS011;42542;48.360;10.958;2023-04-15T05:30:24;7.70;;;2.60;;
56667;SDS011;42542;48.360;10.958;2023-04-15T05:33:27;7.88;;;2.55;;
56667;SDS011;42542;48.360;10.958;2023-04-15T05:36:30;10.57;;;3.00;;
56667;SDS011;42542;48.360;10.958;2023-04-15T05:39:44;8.07;;;2.40;;
56667;SDS011;42542;48.360;10.958;2023-04-15T05:42:48;10.20;;;2.72;;
56667;SDS011;42542;48.360;10.958;2023-04-15T05:45:53;8.93;;;2.33;;
56667;SDS011;42542;48.360;10.958;2023-04-15T05:48:59;8.32;;;2.47;;
56667;SDS011;42542;48.360;10.958;2023-04-15T05:52:04;7.55;;;2.30;;
56667;SDS011;42542;48.360;10.958;2023-04-15T05:55:08;8.20;;;2.60;;
56667;SDS011;42542;48.360;10.958;2023-04-15T05:58:11;8.20;;;2.20;;
56667;SDS011;42542;48.360;10.958;2023-04-15T06:01:20;8.27;;;2.53;;
56667;SDS011;42542;48.360;10.958;2023-04-15T06:04:26;8.70;;;2.17;;
56667;SDS011;42542;48.360;10.958;2023-04-15T06:07:38;7.70;;;2.22;;
56667;SDS011;42542;48.360;10.958;2023-04-15T06:10:43;7.80;;;2.35;;
56667;SDS011;42542;48.360;10.958;2023-04-15T06:13:48;7.82;;;2.30;;
56667;SDS011;42542;48.360;10.958;2023-04-15T06:16:51;6.47;;;1.80;;
56667;SDS011;42542;48.360;10.958;2023-04-15T06:19:56;6.53;;;2.00;;
56667;SDS011;42542;48.360;10.958;2023-04-15T06:23:02;6.10;;;2.03;;
56667;SDS011;42542;48.360;10.958;2023-04-15T06:26:07;5.77;;;1.93;;
56667;SDS011;42542;48.360;10.958;2023-04-15T06:29:12;6.30;;;2.10;;
56667;SDS011;42542;48.360;10.958;2023-04-15T06:32:23;6.47;;;1.90;;
56667;SDS011;42542;48.360;10.958;2023-04-15T06:35:28;9.40;;;1.90;;
56667;SDS011;42542;48.360;10.958;2023-04-15T06:38:34;7.85;;;1.80;;
56667;SDS011;42542;48.360;10.958;2023-04-15T06:41:38;6.97;;;1.73;;
56667;SDS011;42542;48.360;10.958;2023-04-15T06:44:43;6.97;;;1.70;;
56667;SDS011;42542;48.360;10.958;2023-04-15T06:47:46;6.63;;;1.90;;
56667;SDS011;42542;48.360;10.958;2023-04-15T06:50:51;7.10;;;1.73;;
56667;SDS011;42542;48.360;10.958;2023-04-15T06:53:57;6.43;;;1.80;;
56667;SDS011;42542;48.360;10.958;2023-04-15T06:57:00;8.80;;;1.87;;
56667;SDS011;42542;48.360;10.958;2023-04-15T07:00:13;6.20;;;2.00;;
56667;SDS011;42542;48.360;10.958;2023-04-15T07:03:18;6.03;;;1.70;;
56667;SDS011;42542;48.360;10.958;2023-04-15T07:06:23;7.22;;;1.75;;
56667;SDS011;42542;48.360;10.958;2023-04-15T07:09:27;6.25;;;1.88;;
56667;SDS011;42542;48.360;10.958;2023-04-15T07:12:32;5.85;;;1.70;;
56667;SDS011;42542;48.360;10.958;2023-04-15T07:15:51;8.65;;;2.95;;
56667;SDS011;42542;48.360;10.958;2023-04-15T07:18:53;6.30;;;1.90;;
56667;SDS011;42542;48.360;10.958;2023-04-15T07:22:01;6.68;;;2.03;;
56667;SDS011;42542;48.360;10.958;2023-04-15T07:25:04;8.40;;;1.90;;
56667;SDS011;42542;48.360;10.958;2023-04-15T07:28:16;5.80;;;1.70;;
56667;SDS011;42542;48.360;10.958;2023-04-15T07:31:21;6.65;;;1.92;;
56667;SDS011;42542;48.360;10.958;2023-04-15T07:34:24;8.75;;;2.10;;
56667;SDS011;42542;48.360;10.958;2023-04-15T07:37:31;6.40;;;1.90;;
56667;SDS011;42542;48.360;10.958;2023-04-15T07:40:34;7.45;;;2.70;;
56667;SDS011;42542;48.360;10.958;2023-04-15T07:43:37;9.30;;;2.00;;
56667;SDS011;42542;48.360;10.958;2023-04-15T07:46:51;6.10;;;1.90;;
56667;SDS011;42542;48.360;10.958;2023-04-15T07:49:56;6.03;;;1.70;;
56667;SDS011;42542;48.360;10.958;2023-04-15T07:53:07;6.00;;;2.10;;
56667;SDS011;42542;48.360;10.958;2023-04-15T07:56:12;6.80;;;1.83;;
56667;SDS011;42542;48.360;10.958;2023-04-15T07:59:17;9.07;;;1.90;;
56667;SDS011;42542;48.360;10.958;2023-04-15T08:02:22;6.45;;;2.00;;
56667;SDS011;42542;48.360;10.958;2023-04-15T08:05:28;7.32;;;2.13;;
56667;SDS011;42542;48.360;10.958;2023-04-15T08:08:33;7.55;;;2.30;;
56667;SDS011;42542;48.360;10.958;2023-04-15T08:11:47;7.07;;;2.13;;
56667;SDS011;42542;48.360;10.958;2023-04-15T08:14:57;5.80;;;1.90;;
56667;SDS011;42542;48.360;10.958;2023-04-15T08:18:10;6.15;;;2.10;;
56667;SDS011;42542;48.360;10.958;2023-04-15T08:21:15;7.53;;;2.00;;
56667;SDS011;42542;48.360;10.958;2023-04-15T08:24:22;7.13;;;2.22;;
56667;SDS011;42542;48.360;10.958;2023-04-15T08:27:28;8.95;;;2.40;;
56667;SDS011;42542;48.360;10.958;2023-04-15T08:30:31;9.57;;;2.40;;
56667;SDS011;42542;48.360;10.958;2023-04-15T08:33:35;7.28;;;2.25;;
56667;SDS011;42542;48.360;10.958;2023-04-15T08:36:47;6.63;;;1.98;;
56667;SDS011;42542;48.360;10.958;2023-04-15T08:39:52;6.43;;;2.38;;
56667;SDS011;42542;48.360;10.958;2023-04-15T08:43:03;7.07;;;2.30;;
56667;SDS011;42542;48.360;10.958;2023-04-15T08:46:12;8.00;;;2.47;;
56667;SDS011;42542;48.360;10.958;2023-04-15T08:49:24;7.00;;;2.30;;
56667;SDS011;42542;48.360;10.958;2023-04-15T08:52:38;7.57;;;2.37;;
56667;SDS011;42542;48.360;10.958;2023-04-15T08:55:41;9.48;;;2.60;;
56667;SDS011;42542;48.360;10.958;2023-04-15T08:59:02;7.93;;;2.65;;
56667;SDS011;42542;48.360;10.958;2023-04-15T09:02:09;7.73;;;2.43;;
56667;SDS011;42542;48.360;10.958;2023-04-15T09:05:25;7.47;;;2.58;;
56667;SDS011;42542;48.360;10.958;2023-04-15T09:08:29;7.95;;;2.50;;
56667;SDS011;42542;48.360;10.958;2023-04-15T09:11:31;9.55;;;2.75;;
56667;SDS011;42542;48.360;10.958;2023-04-15T09:14:34;6.55;;;2.22;;
56667;SDS011;42542;48.360;10.958;2023-04-15T09:17:47;7.85;;;2.60;;
56667;SDS011;42542;48.360;10.958;2023-04-15T09:20:53;8.00;;;2.58;;
56667;SDS011;42542;48.360;10.958;2023-04-15T09:24:03;7.13;;;2.50;;
56667;SDS011;42542;48.360;10.958;2023-04-15T09:27:10;8.05;;;2.65;;
56667;SDS011;42542;48.360;10.958;2023-04-15T09:30:14;10.73;;;2.40;;
56667;SDS011;42542;48.360;10.958;2023-04-15T09:33:21;7.70;;;2.43;;
56667;SDS011;42542;48.360;10.958;2023-04-15T09:36:51;7.95;;;2.83;;
56667;SDS011;42542;48.360;10.958;2023-04-15T09:39:58;6.63;;;2.33;;
56667;SDS011;42542;48.360;10.958;2023-04-15T09:43:04;7.68;;;2.47;;
56667;SDS011;42542;48.360;10.958;2023-04-15T09:46:10;9.88;;;3.15;;
56667;SDS011;42542;48.360;10.958;2023-04-15T09:49:13;7.53;;;2.70;;
56667;SDS011;42542;48.360;10.958;2023-04-15T09:52:20;9.73;;;2.60;;
56667;SDS011;42542;48.360;10.958;2023-04-15T09:55:27;8.63;;;2.53;;
56667;SDS011;42542;48.360;10.958;2023-04-15T09:58:34;9.82;;;2.90;;
56667;SDS011;42542;48.360;10.958;2023-04-15T10:01:40;8.52;;;2.75;;
56667;SDS011;42542;48.360;10.958;2023-04-15T10:04:47;10.00;;;3.00;;
56667;SDS011;42542;48.360;10.958;2023-04-15T10:07:59;7.82;;;2.72;;
56667;SDS011;42542;48.360;10.958;2023-04-15T10:11:16;7.90;;;2.80;;
56667;SDS011;42542;48.360;10.958;2023-04-15T10:14:21;9.20;;;2.80;;
56667;SDS011;42542;48.360;10.958;2023-04-15T10:17:27;9.40;;;3.20;;
56667;SDS011;42542;48.360;10.958;2023-04-15T10:20:42;9.70;;;3.10;;
56667;SDS011;42542;48.360;10.958;2023-04-15T10:24:00;8.52;;;3.33;;
56667;SDS011;42542;48.360;10.958;2023-04-15T10:27:11;7.83;;;3.10;;
56667;SDS011;42542;48.360;10.958;2023-04-15T10:30:16;8.27;;;3.30;;
56667;SDS011;42542;48.360;10.958;2023-04-15T10:33:28;10.27;;;3.40;;
56667;SDS011;42542;48.360;10.958;2023-04-15T10:36:34;9.57;;;3.67;;
56667;SDS011;42542;48.360;10.958;2023-04-15T10:39:40;8.85;;;3.47;;
56667;SDS011;42542;48.360;10.958;2023-04-15T10:42:43;10.18;;;3.70;;
56667;SDS011;42542;48.360;10.958;2023-04-15T10:45:48;9.30;;;4.20;;
56667;SDS011;42542;48.360;10.958;2023-04-15T10:49:12;10.98;;;4.53;;
56667;SDS011;42542;48.360;10.958;2023-04-15T10:52:26;9.70;;;3.80;;
56667;SDS011;42542;48.360;10.958;2023-04-15T10:55:34;9.63;;;3.80;;
56667;SDS011;42542;48.360;10.958;2023-04-15T10:58:43;10.87;;;4.10;;
56667;SDS011;42542;48.360;10.958;2023-04-15T11:01:54;9.38;;;3.70;;
56667;SDS011;42542;48.360;10.958;2023-04-15T11:05:04;10.40;;;4.00;;
56667;SDS011;42542;48.360;10.958;2023-04-15T11:08:11;12.03;;;3.73;;
56667;SDS011;42542;48.360;10.958;2023-04-15T11:11:19;9.93;;;4.07;;
56667;SDS011;42542;48.360;10.958;2023-04-15T11:14:24;12.20;;;3.85;;
56667;SDS011;42542;48.360;10.958;2023-04-15T11:17:28;8.90;;;2.90;;
56667;SDS011;42542;48.360;10.958;2023-04-15T11:20:31;6.95;;;2.53;;
56667;SDS011;42542;48.360;10.958;2023-04-15T11:23:41;5.22;;;1.80;;
56667;SDS011;42542;48.360;10.958;2023-04-15T11:27:00;5.00;;;1.70;;
56667;SDS011;42542;48.360;10.958;2023-04-15T11:30:20;6.00;;;1.50;;
56667;SDS011;42542;48.360;10.958;2023-04-15T11:33:33;4.50;;;1.25;;
56667;SDS011;42542;48.360;10.958;2023-04-15T11:36:46;5.63;;;1.48;;
56667;SDS011;42542;48.360;10.958;2023-04-15T11:39:51;5.37;;;1.50;;
56667;SDS011;42542;48.360;10.958;2023-04-15T11:46:27;5.03;;;1.30;;
56667;SDS011;42542;48.360;10.958;2023-04-15T11:49:35;4.85;;;1.48;;
56667;SDS011;42542;48.360;10.958;2023-04-15T11:52:56;4.95;;;1.17;;
56667;SDS011;42542;48.360;10.958;2023-04-15T11:56:03;4.47;;;1.20;;
56667;SDS011;42542;48.360;10.958;2023-04-15T11:59:08;5.10;;;1.40;;
56667;SDS011;42542;48.360;10.958;2023-04-15T12:02:11;5.30;;;1.50;;
56667;SDS011;42542;48.360;10.958;2023-04-15T12:05:18;6.47;;;1.80;;
56667;SDS011;42542;48.360;10.958;2023-04-15T12:08:24;6.15;;;2.00;;
56667;SDS011;42542;48.360;10.958;2023-04-15T12:11:33;6.47;;;2.40;;
56667;SDS011;42542;48.360;10.958;2023-04-15T12:14:55;8.00;;;2.70;;
56667;SDS011;42542;48.360;10.958;2023-04-15T12:18:01;7.50;;;2.67;;
56667;SDS011;42542;48.360;10.958;2023-04-15T12:21:10;7.22;;;2.40;;
56667;SDS011;42542;48.360;10.958;2023-04-15T12:24:13;9.27;;;2.70;;
56667;SDS011;42542;48.360;10.958;2023-04-15T12:27:25;7.28;;;2.42;;
56667;SDS011;42542;48.360;10.958;2023-04-15T12:30:47;7.85;;;2.33;;
56667;SDS011;42542;48.360;10.958;2023-04-15T12:34:06;7.10;;;2.40;;
56667;SDS011;42542;48.360;10.958;2023-04-15T12:37:17;7.25;;;2.58;;
56667;SDS011;42542;48.360;10.958;2023-04-15T12:40:21;7.75;;;2.67;;
56667;SDS011;42542;48.360;10.958;2023-04-15T12:43:24;9.43;;;2.90;;
56667;SDS011;42542;48.360;10.958;2023-04-15T12:46:28;9.55;;;3.20;;
56667;SDS011;42542;48.360;10.958;2023-04-15T12:49:33;9.15;;;3.30;;
56667;SDS011;42542;48.360;10.958;2023-04-15T12:52:39;8.48;;;3.38;;
56667;SDS011;42542;48.360;10.958;2023-04-15T12:55:43;7.75;;;3.40;;
56667;SDS011;42542;48.360;10.958;2023-04-15T12:58:58;10.95;;;3.50;;
56667;SDS011;42542;48.360;10.958;2023-04-15T13:02:01;8.10;;;3.30;;
56667;SDS011;42542;48.360;10.958;2023-04-15T13:05:07;8.63;;;3.00;;
56667;SDS011;42542;48.360;10.958;2023-04-15T13:08:11;10.55;;;3.20;;
56667;SDS011;42542;48.360;10.958;2023-04-15T13:11:18;9.45;;;2.65;;
56667;SDS011;42542;48.360;10.958;2023-04-15T13:14:24;7.30;;;2.60;;
56667;SDS011;42542;48.360;10.958;2023-04-15T13:17:29;6.93;;;2.70;;
56667;SDS011;42542;48.360;10.958;2023-04-15T13:20:34;7.53;;;2.65;;
56667;SDS011;42542;48.360;10.958;2023-04-15T13:23:41;8.60;;;2.63;;
56667;SDS011;42542;48.360;10.958;2023-04-15T13:26:44;8.27;;;2.42;;
56667;SDS011;42542;48.360;10.958;2023-04-15T13:29:52;7.32;;;2.35;;
56667;SDS011;42542;48.360;10.958;2023-04-15T13:33:02;6.97;;;2.30;;
56667;SDS011;42542;48.360;10.958;2023-04-15T13:36:07;7.63;;;2.10;;
56667;SDS011;42542;48.360;10.958;2023-04-15T13:39:10;6.25;;;2.35;;
56667;SDS011;42542;48.360;10.958;2023-04-15T13:42:13;6.70;;;2.33;;
56667;SDS011;42542;48.360;10.958;2023-04-15T13:45:26;7.20;;;2.57;;
56667;SDS011;42542;48.360;10.958;2023-04-15T13:48:43;8.43;;;2.80;;
56667;SDS011;42542;48.360;10.958;2023-04-15T13:51:50;7.93;;;2.60;;
56667;SDS011;42542;48.360;10.958;2023-04-15T13:55:02;7.63;;;2.53;;
56667;SDS011;42542;48.360;10.958;2023-04-15T13:58:21;7.40;;;2.80;;
56667;SDS011;42542;48.360;10.958;2023-04-15T14:01:27;6.88;;;2.60;;
56667;SDS011;42542;48.360;10.958;2023-04-15T14:04:42;8.43;;;2.90;;
56667;SDS011;42542;48.360;10.958;2023-04-15T14:07:45;7.40;;;2.57;;
56667;SDS011;42542;48.360;10.958;2023-04-15T14:10:47;7.43;;;2.80;;
56667;SDS011;42542;48.360;10.958;2023-04-15T14:13:53;12.95;;;4.03;;
56667;SDS011;42542;48.360;10.958;2023-04-15T14:16:58;11.53;;;4.27;;
56667;SDS011;42542;48.360;10.958;2023-04-15T14:20:05;9.38;;;3.53;;
56667;SDS011;42542;48.360;10.958;2023-04-15T14:23:19;9.73;;;3.30;;
56667;SDS011;42542;48.360;10.958;2023-04-15T14:26:24;9.55;;;3.28;;
56667;SDS011;42542;48.360;10.958;2023-04-15T14:29:29;7.80;;;2.95;;
56667;SDS011;42542;48.360;10.958;2023-04-15T14:32:35;7.32;;;2.90;;
56667;SDS011;42542;48.360;10.958;2023-04-15T14:35:48;7.95;;;2.78;;
56667;SDS011;42542;48.360;10.958;2023-04-15T14:38:59;6.70;;;2.50;;
56667;SDS011;42542;48.360;10.958;2023-04-15T14:42:01;8.18;;;2.50;;
56667;SDS011;42542;48.360;10.958;2023-04-15T14:45:06;7.88;;;2.70;;
56667;SDS011;42542;48.360;10.958;2023-04-15T14:48:10;9.50;;;3.90;;
56667;SDS011;42542;48.360;10.958;2023-04-15T14:51:15;9.43;;;3.88;;
56667;SDS011;42542;48.360;10.958;2023-04-15T14:54:26;9.25;;;3.90;;
56667;SDS011;42542;48.360;10.958;2023-04-15T14:57:29;8.65;;;3.60;;
56667;SDS011;42542;48.360;10.958;2023-04-15T15:00:32;7.53;;;2.92;;
56667;SDS011;42542;48.360;10.958;2023-04-15T15:03:37;6.82;;;2.65;;
56667;SDS011;42542;48.360;10.958;2023-04-15T15:06:43;7.65;;;2.47;;
56667;SDS011;42542;48.360;10.958;2023-04-15T15:09:52;7.93;;;2.57;;
56667;SDS011;42542;48.360;10.958;2023-04-15T15:12:56;8.13;;;2.38;;
56667;SDS011;42542;48.360;10.958;2023-04-15T15:16:10;5.70;;;2.17;;
56667;SDS011;42542;48.360;10.958;2023-04-15T15:19:15;7.43;;;2.17;;
56667;SDS011;42542;48.360;10.958;2023-04-15T15:22:22;6.43;;;2.20;;
56667;SDS011;42542;48.360;10.958;2023-04-15T15:25:27;6.85;;;2.65;;
56667;SDS011;42542;48.360;10.958;2023-04-15T15:28:33;6.90;;;2.60;;
56667;SDS011;42542;48.360;10.958;2023-04-15T15:31:47;8.15;;;2.20;;
56667;SDS011;42542;48.360;10.958;2023-04-15T15:34:52;7.15;;;2.53;;
56667;SDS011;42542;48.360;10.958;2023-04-15T15:37:59;9.73;;;2.58;;
56667;SDS011;42542;48.360;10.958;2023-04-15T15:41:03;6.87;;;2.03;;
56667;SDS011;42542;48.360;10.958;2023-04-15T15:44:06;7.00;;;2.60;;
56667;SDS011;42542;48.360;10.958;2023-04-15T15:47:08;8.23;;;2.30;;
56667;SDS011;42542;48.360;10.958;2023-04-15T15:50:11;10.37;;;2.60;;
56667;SDS011;42542;48.360;10.958;2023-04-15T15:53:15;6.45;;;2.25;;
56667;SDS011;42542;48.360;10.958;2023-04-15T15:56:24;7.55;;;2.30;;
56667;SDS011;42542;48.360;10.958;2023-04-15T15:59:37;6.75;;;2.13;;
56667;SDS011;42542;48.360;10.958;2023-04-15T16:02:42;6.55;;;2.40;;
56667;SDS011;42542;48.360;10.958;2023-04-15T16:06:07;10.50;;;3.80;;
56667;SDS011;42542;48.360;10.958;2023-04-15T16:09:23;7.70;;;3.00;;
56667;SDS011;42542;48.360;10.958;2023-04-15T16:12:27;6.90;;;2.87;;
56667;SDS011;42542;48.360;10.958;2023-04-15T16:15:30;8.35;;;3.60;;
56667;SDS011;42542;48.360;10.958;2023-04-15T16:18:32;10.88;;;5.05;;
56667;SDS011;42542;48.360;10.958;2023-04-15T16:21:36;8.27;;;4.23;;
56667;SDS011;42542;48.360;10.958;2023-04-15T16:24:43;8.93;;;3.92;;
56667;SDS011;42542;48.360;10.958;2023-04-15T16:27:54;8.27;;;3.90;;
56667;SDS011;42542;48.360;10.958;2023-04-15T16:31:17;9.50;;;3.80;;
56667;SDS011;42542;48.360;10.958;2023-04-15T16:34:20;7.93;;;3.10;;
56667;SDS011;42542;48.360;10.958;2023-04-15T16:37:23;10.68;;;4.07;;
56667;SDS011;42542;48.360;10.958;2023-04-15T16:40:25;8.15;;;3.60;;
56667;SDS011;42542;48.360;10.958;2023-04-15T16:43:30;9.00;;;3.40;;
56667;SDS011;42542;48.360;10.958;2023-04-15T16:46:35;9.25;;;3.60;;
56667;SDS011;42542;48.360;10.958;2023-04-15T16:49:39;8.45;;;3.83;;
56667;SDS011;42542;48.360;10.958;2023-04-15T16:52:44;9.67;;;4.40;;
56667;SDS011;42542;48.360;10.958;2023-04-15T16:55:47;11.05;;;3.70;;
56667;SDS011;42542;48.360;10.958;2023-04-15T16:58:50;11.38;;;4.57;;
56667;SDS011;42542;48.360;10.958;2023-04-15T17:01:54;10.93;;;5.22;;
56667;SDS011;42542;48.360;10.958;2023-04-15T17:05:00;11.35;;;5.47;;
56667;SDS011;42542;48.360;10.958;2023-04-15T17:08:03;15.27;;;5.55;;
56667;SDS011;42542;48.360;10.958;2023-04-15T17:11:07;15.23;;;5.78;;
56667;SDS011;42542;48.360;10.958;2023-04-15T17:14:09;12.67;;;5.50;;
56667;SDS011;42542;48.360;10.958;2023-04-15T17:17:11;12.43;;;5.70;;
56667;SDS011;42542;48.360;10.958;2023-04-15T17:20:13;13.63;;;6.50;;
56667;SDS011;42542;48.360;10.958;2023-04-15T17:23:17;14.07;;;6.37;;
56667;SDS011;42542;48.360;10.958;2023-04-15T17:26:26;11.93;;;5.40;;
56667;SDS011;42542;48.360;10.958;2023-04-15T17:29:30;13.23;;;6.15;;
56667;SDS011;42542;48.360;10.958;2023-04-15T17:32:32;13.18;;;5.40;;
56667;SDS011;42542;48.360;10.958;2023-04-15T17:35:43;11.68;;;5.68;;
56667;SDS011;42542;48.360;10.958;2023-04-15T17:38:45;13.57;;;6.40;;
56667;SDS011;42542;48.360;10.958;2023-04-15T17:41:48;16.10;;;7.80;;
56667;SDS011;42542;48.360;10.958;2023-04-15T17:44:59;20.23;;;9.03;;
56667;SDS011;42542;48.360;10.958;2023-04-15T17:48:16;14.75;;;7.03;;
56667;SDS011;42542;48.360;10.958;2023-04-15T17:51:20;15.48;;;6.72;;
56667;SDS011;42542;48.360;10.958;2023-04-15T17:54:22;14.10;;;6.70;;
56667;SDS011;42542;48.360;10.958;2023-04-15T17:57:24;14.15;;;6.80;;
56667;SDS011;42542;48.360;10.958;2023-04-15T18:00:26;15.43;;;6.75;;
56667;SDS011;42542;48.360;10.958;2023-04-15T18:03:31;19.55;;;7.72;;
56667;SDS011;42542;48.360;10.958;2023-04-15T18:06:40;19.13;;;7.88;;
56667;SDS011;42542;48.360;10.958;2023-04-15T18:09:49;14.50;;;7.25;;
56667;SDS011;42542;48.360;10.958;2023-04-15T18:12:53;16.75;;;7.40;;
56667;SDS011;42542;48.360;10.958;2023-04-15T18:15:57;16.13;;;6.97;;
56667;SDS011;42542;48.360;10.958;2023-04-15T18:19:00;19.05;;;8.98;;
56667;SDS011;42542;48.360;10.958;2023-04-15T18:22:05;12.20;;;5.78;;
56667;SDS011;42542;48.360;10.958;2023-04-15T18:25:08;10.87;;;4.70;;
56667;SDS011;42542;48.360;10.958;2023-04-15T18:28:11;9.13;;;3.70;;
56667;SDS011;42542;48.360;10.958;2023-04-15T18:31:15;10.48;;;4.05;;